createdAt,value
2023-04-09T00:00:40.272Z,12.48
2023-04-09T00:03:07.963Z,12.80
2023-04-09T00:05:40.673Z,12.77
2023-04-09T00:08:13.745Z,13.00
2023-04-09T00:10:41.049Z,12.95
2023-04-09T00:13:08.512Z,13.38
2023-04-09T00:15:36.524Z,13.02
2023-04-09T00:18:05.966Z,11.80
2023-04-09T00:20:33.238Z,12.15
2023-04-09T00:23:21.490Z,12.38
2023-04-09T00:25:59.259Z,13.00
2023-04-09T00:28:26.723Z,12.80
2023-04-09T00:30:53.977Z,12.30
2023-04-09T00:33:27.232Z,12.68
2023-04-09T00:35:54.488Z,12.52
2023-04-09T00:38:24.414Z,12.82
2023-04-09T00:41:09.276Z,13.80
2023-04-09T00:43:39.551Z,12.57
2023-04-09T00:46:18.594Z,13.18
2023-04-09T00:48:46.927Z,12.52
2023-04-09T00:51:17.561Z,14.68
2023-04-09T00:53:45.079Z,13.07
2023-04-09T00:56:15.573Z,14.20
2023-04-09T00:58:46.444Z,12.95
2023-04-09T01:01:13.788Z,13.23
2023-04-09T01:03:41.030Z,13.77
2023-04-09T01:06:12.785Z,14.13
2023-04-09T01:09:06.549Z,14.18
2023-04-09T01:11:40.514Z,13.32
2023-04-09T01:14:20.436Z,15.13
2023-04-09T01:16:52.874Z,14.73
2023-04-09T01:19:52.936Z,14.25
2023-04-09T01:22:38.166Z,14.02
2023-04-09T01:25:33.981Z,14.90
2023-04-09T01:28:23.206Z,14.63
2023-04-09T01:30:54.358Z,14.45
2023-04-09T01:33:22.095Z,13.73
2023-04-09T01:35:51.321Z,14.48
2023-04-09T01:38:25.751Z,14.77
2023-04-09T01:40:53.898Z,15.15
2023-04-09T01:43:21.548Z,14.63
2023-04-09T01:45:48.763Z,14.30
2023-04-09T01:48:20.405Z,15.50
2023-04-09T01:50:53.620Z,15.32
2023-04-09T01:53:21.513Z,14.27
2023-04-09T01:56:07.329Z,13.90
2023-04-09T01:58:48.159Z,14.55
2023-04-09T02:01:30.939Z,15.45
2023-04-09T02:04:06.189Z,14.27
2023-04-09T02:06:56.337Z,12.75
2023-04-09T02:09:26.210Z,13.38
2023-04-09T02:11:53.437Z,13.40
2023-04-09T02:14:22.695Z,16.25
2023-04-09T02:16:50.322Z,13.40
2023-04-09T02:19:17.762Z,14.13
2023-04-09T02:21:46.068Z,14.18
2023-04-09T02:24:13.380Z,15.02
2023-04-09T02:26:40.874Z,15.68
2023-04-09T02:29:08.312Z,15.35
2023-04-09T02:31:36.568Z,14.00
2023-04-09T02:34:03.879Z,14.13
2023-04-09T02:36:31.361Z,13.32
2023-04-09T02:38:58.695Z,15.40
2023-04-09T02:41:26.244Z,14.57
2023-04-09T02:43:53.663Z,14.15
2023-04-09T02:46:21.152Z,13.40
2023-04-09T02:48:48.643Z,12.85
2023-04-09T02:51:16.206Z,14.95
2023-04-09T02:53:43.642Z,14.40
2023-04-09T02:56:11.413Z,14.32
2023-04-09T02:58:38.899Z,12.50
2023-04-09T03:01:06.091Z,16.58
2023-04-09T03:03:33.710Z,14.63
2023-04-09T03:06:21.533Z,13.90
2023-04-09T03:08:49.210Z,16.00
2023-04-09T03:11:24.126Z,14.57
2023-04-09T03:14:00.632Z,14.20
2023-04-09T03:16:31.006Z,13.38
2023-04-09T03:18:58.546Z,13.82
2023-04-09T03:21:33.291Z,14.23
2023-04-09T03:24:03.981Z,13.43
2023-04-09T03:26:40.704Z,14.40
2023-04-09T03:29:14.342Z,13.75
2023-04-09T03:31:44.665Z,13.80
2023-04-09T03:34:12.146Z,14.38
2023-04-09T03:36:39.560Z,14.20
2023-04-09T03:39:21.675Z,12.85
2023-04-09T03:41:49.031Z,13.77
2023-04-09T03:44:17.797Z,14.35
2023-04-09T03:46:58.757Z,12.63
2023-04-09T03:49:27.158Z,13.68
2023-04-09T03:51:58.220Z,14.15
2023-04-09T03:54:32.792Z,16.40
2023-04-09T03:57:04.334Z,14.20
2023-04-09T03:59:32.320Z,13.32
2023-04-09T04:01:59.916Z,16.45
2023-04-09T04:04:28.503Z,13.13
2023-04-09T04:07:03.101Z,14.57
2023-04-09T04:09:37.765Z,13.65
2023-04-09T04:12:09.692Z,14.55
2023-04-09T04:14:56.997Z,15.38
2023-04-09T04:17:32.127Z,15.48
2023-04-09T04:20:01.303Z,14.95
2023-04-09T04:22:31.772Z,15.18
2023-04-09T04:25:00.602Z,15.50
2023-04-09T04:27:28.946Z,14.55
2023-04-09T04:30:02.141Z,14.68
2023-04-09T04:32:54.805Z,13.60
2023-04-09T04:35:26.293Z,13.65
2023-04-09T04:37:57.114Z,15.18
2023-04-09T04:40:28.143Z,17.10
2023-04-09T04:43:06.060Z,15.27
2023-04-09T04:45:33.803Z,14.55
2023-04-09T04:48:12.691Z,15.05
2023-04-09T04:50:40.778Z,14.68
2023-04-09T04:53:10.283Z,13.02
2023-04-09T04:55:45.124Z,13.70
2023-04-09T04:58:17.791Z,12.88
2023-04-09T05:00:52.945Z,14.85
2023-04-09T05:03:24.068Z,15.85
2023-04-09T05:05:57.823Z,15.65
2023-04-09T05:08:30.448Z,14.38
2023-04-09T05:10:58.814Z,15.88
2023-04-09T05:13:36.616Z,16.13
2023-04-09T05:16:07.589Z,14.63
2023-04-09T05:18:36.684Z,15.30
2023-04-09T05:21:03.882Z,13.98
2023-04-09T05:23:32.748Z,16.05
2023-04-09T05:26:12.086Z,14.85
2023-04-09T05:28:56.840Z,15.98
2023-04-09T05:31:27.649Z,15.32
2023-04-09T05:34:11.147Z,15.65
2023-04-09T05:36:46.124Z,13.85
2023-04-09T05:39:16.167Z,15.75
2023-04-09T05:41:45.097Z,15.15
2023-04-09T05:44:24.559Z,14.80
2023-04-09T05:46:56.737Z,15.27
2023-04-09T05:49:34.028Z,14.43
2023-04-09T05:52:18.112Z,14.85
2023-04-09T05:54:54.957Z,15.35
2023-04-09T05:57:30.565Z,14.43
2023-04-09T06:00:01.808Z,15.35
2023-04-09T06:02:29.625Z,15.63
2023-04-09T06:05:01.722Z,14.55
2023-04-09T06:07:29.107Z,15.73
2023-04-09T06:10:00.561Z,15.77
2023-04-09T06:12:28.943Z,15.45
2023-04-09T06:14:56.088Z,16.58
2023-04-09T06:17:30.622Z,18.88
2023-04-09T06:19:58.180Z,16.60
2023-04-09T06:22:27.775Z,15.55
2023-04-09T06:24:54.983Z,15.77
2023-04-09T06:27:44.500Z,14.38
2023-04-09T06:30:12.368Z,15.95
2023-04-09T06:32:51.086Z,16.85
2023-04-09T06:35:31.892Z,13.90
2023-04-09T06:38:15.419Z,13.73
2023-04-09T06:40:47.860Z,11.82
2023-04-09T06:43:16.339Z,15.82
2023-04-09T06:45:48.859Z,14.27
2023-04-09T06:48:17.069Z,12.85
2023-04-09T06:51:02.246Z,12.77
2023-04-09T06:53:29.793Z,12.90
2023-04-09T06:55:59.898Z,11.88
2023-04-09T06:58:27.199Z,12.57
2023-04-09T07:00:54.733Z,11.85
2023-04-09T07:03:29.878Z,13.15
2023-04-09T07:05:58.265Z,12.35
2023-04-09T07:08:28.791Z,12.35
2023-04-09T07:11:04.867Z,14.38
2023-04-09T07:13:35.382Z,11.73
2023-04-09T07:16:02.464Z,11.10
2023-04-09T07:18:30.652Z,11.65
2023-04-09T07:21:01.007Z,12.45
2023-04-09T07:23:37.355Z,12.18
2023-04-09T07:26:05.465Z,12.20
2023-04-09T07:28:39.025Z,12.00
2023-04-09T07:31:09.677Z,12.95
2023-04-09T07:33:36.790Z,13.07
2023-04-09T07:36:10.231Z,11.52
2023-04-09T07:38:37.410Z,12.55
2023-04-09T07:41:13.448Z,13.10
2023-04-09T07:43:41.099Z,12.93
2023-04-09T07:46:08.863Z,14.07
2023-04-09T07:48:38.565Z,12.73
2023-04-09T07:51:06.459Z,13.55
2023-04-09T07:53:33.614Z,12.93
2023-04-09T07:56:56.300Z,13.52
2023-04-09T07:59:27.699Z,13.05
2023-04-09T08:01:55.302Z,13.45
2023-04-09T08:04:24.997Z,13.02
2023-04-09T08:06:53.671Z,12.25
2023-04-09T08:12:02.519Z,13.07
2023-04-09T08:14:30.386Z,13.10
2023-04-09T08:17:14.197Z,14.48
2023-04-09T08:19:42.116Z,15.40
2023-04-09T08:22:09.605Z,15.27
2023-04-09T08:24:37.104Z,13.10
2023-04-09T08:27:07.431Z,13.27
2023-04-09T08:29:34.978Z,13.85
2023-04-09T08:32:08.374Z,14.15
2023-04-09T08:34:38.055Z,15.55
2023-04-09T08:37:42.269Z,16.02
2023-04-09T08:40:14.229Z,14.18
2023-04-09T08:43:02.577Z,14.32
2023-04-09T08:45:35.190Z,15.55
2023-04-09T08:48:23.804Z,16.33
2023-04-09T08:50:57.358Z,13.50
2023-04-09T08:53:32.832Z,14.95
2023-04-09T08:56:00.631Z,14.27
2023-04-09T08:58:28.584Z,14.27
2023-04-09T09:00:55.881Z,13.77
2023-04-09T09:03:37.495Z,14.20
2023-04-09T09:06:08.873Z,13.88
2023-04-09T09:08:36.230Z,12.35
2023-04-09T09:11:12.050Z,12.60
2023-04-09T09:13:39.546Z,13.13
2023-04-09T09:16:16.703Z,14.25
2023-04-09T09:18:44.854Z,12.02
2023-04-09T09:21:16.568Z,9.10
2023-04-09T09:23:44.500Z,11.18
2023-04-09T09:26:24.699Z,8.85
2023-04-09T09:28:52.399Z,7.80
2023-04-09T09:31:29.159Z,7.32
2023-04-09T09:34:01.263Z,8.38
2023-04-09T09:36:39.993Z,7.57
2023-04-09T09:39:17.961Z,7.60
2023-04-09T09:41:46.064Z,7.70
2023-04-09T09:44:30.470Z,8.18
2023-04-09T09:46:58.013Z,7.43
2023-04-09T09:49:25.444Z,6.90
2023-04-09T09:51:52.647Z,7.03
2023-04-09T09:54:23.265Z,7.22
2023-04-09T09:56:50.535Z,6.72
2023-04-09T09:59:23.400Z,6.97
2023-04-09T10:01:58.766Z,7.20
2023-04-09T10:04:28.547Z,6.53
2023-04-09T10:07:09.098Z,7.07
2023-04-09T10:09:36.449Z,8.02
2023-04-09T10:12:03.811Z,6.95
2023-04-09T10:14:45.662Z,6.05
2023-04-09T10:17:41.791Z,6.85
2023-04-09T10:20:30.717Z,7.13
2023-04-09T10:23:07.036Z,8.70
2023-04-09T10:25:34.325Z,7.18
2023-04-09T10:28:02.450Z,6.10
2023-04-09T10:30:35.747Z,7.03
2023-04-09T10:33:16.925Z,6.68
2023-04-09T10:35:47.899Z,8.15
2023-04-09T10:38:17.970Z,8.75
2023-04-09T10:40:49.768Z,8.68
2023-04-09T10:43:22.321Z,8.10
2023-04-09T10:45:53.636Z,9.35
2023-04-09T10:48:22.074Z,7.90
2023-04-09T10:50:50.900Z,8.00
2023-04-09T10:53:27.840Z,8.18
2023-04-09T10:55:55.489Z,8.88
2023-04-09T10:58:22.672Z,6.88
2023-04-09T11:00:53.619Z,6.63
2023-04-09T11:03:29.014Z,7.60
2023-04-09T11:06:02.535Z,8.77
2023-04-09T11:08:31.535Z,9.68
2023-04-09T11:11:04.613Z,9.63
2023-04-09T11:13:36.698Z,10.38
2023-04-09T11:16:07.342Z,9.50
2023-04-09T11:18:41.140Z,8.07
2023-04-09T11:21:18.317Z,9.43
2023-04-09T11:23:52.157Z,8.60
2023-04-09T11:26:24.642Z,9.27
2023-04-09T11:28:51.684Z,8.83
2023-04-09T11:31:18.778Z,11.75
2023-04-09T11:33:49.088Z,9.65
2023-04-09T11:36:16.316Z,8.70
2023-04-09T11:38:43.228Z,8.23
2023-04-09T11:41:12.981Z,9.60
2023-04-09T11:43:39.778Z,8.73
2023-04-09T11:46:07.991Z,8.88
2023-04-09T11:48:34.925Z,8.95
2023-04-09T11:51:01.978Z,9.95
2023-04-09T11:53:30.938Z,9.15
2023-04-09T11:55:57.745Z,8.40
2023-04-09T11:58:26.230Z,8.55
2023-04-09T12:00:55.372Z,10.40
2023-04-09T12:03:29.113Z,10.80
2023-04-09T12:05:56.096Z,9.77
2023-04-09T12:08:23.979Z,8.98
2023-04-09T12:10:53.367Z,9.90
2023-04-09T12:13:20.936Z,12.15
2023-04-09T12:15:49.040Z,11.35
2023-04-09T12:18:15.973Z,10.93
2023-04-09T12:20:44.201Z,10.88
2023-04-09T12:23:11.941Z,10.50
2023-04-09T12:25:42.495Z,8.32
2023-04-09T12:28:10.732Z,8.65
2023-04-09T12:30:37.713Z,9.77
2023-04-09T12:33:04.750Z,9.65
2023-04-09T12:35:31.981Z,8.45
2023-04-09T12:37:59.472Z,7.53
2023-04-09T12:40:26.573Z,7.32
2023-04-09T12:42:54.001Z,8.60
2023-04-09T12:45:21.276Z,8.38
2023-04-09T12:47:48.269Z,8.00
2023-04-09T12:50:16.156Z,8.77
2023-04-09T12:52:43.587Z,8.43
2023-04-09T12:55:10.866Z,8.20
2023-04-09T12:57:39.605Z,7.85
2023-04-09T13:00:07.828Z,9.90
2023-04-09T13:02:35.483Z,8.85
2023-04-09T13:05:05.169Z,8.43
2023-04-09T13:07:31.987Z,7.28
2023-04-09T13:09:58.857Z,8.20
2023-04-09T13:12:25.861Z,9.05
2023-04-09T13:14:54.320Z,9.52
2023-04-09T13:17:21.228Z,8.45
2023-04-09T13:19:48.220Z,9.85
2023-04-09T13:22:15.510Z,10.20
2023-04-09T13:24:43.249Z,10.80
2023-04-09T13:27:11.268Z,10.68
2023-04-09T13:29:38.548Z,9.63
2023-04-09T13:32:07.640Z,8.93
2023-04-09T13:34:35.093Z,7.93
2023-04-09T13:37:02.872Z,7.82
2023-04-09T13:39:29.652Z,7.65
2023-04-09T13:41:56.723Z,8.25
2023-04-09T13:44:24.774Z,8.35
2023-04-09T13:46:51.581Z,8.68
2023-04-09T13:49:18.487Z,8.63
2023-04-09T13:51:45.394Z,8.45
2023-04-09T13:54:12.320Z,7.03
2023-04-09T13:56:39.550Z,7.20
2023-04-09T13:59:06.597Z,7.70
2023-04-09T14:01:34.128Z,8.15
2023-04-09T14:04:02.430Z,8.40
2023-04-09T14:06:29.312Z,6.53
2023-04-09T14:08:56.987Z,5.82
2023-04-09T14:11:23.834Z,6.10
2023-04-09T14:13:50.784Z,5.40
2023-04-09T14:16:17.869Z,5.70
2023-04-09T14:18:44.801Z,5.68
2023-04-09T14:21:11.764Z,5.85
2023-04-09T14:23:39.476Z,8.27
2023-04-09T14:26:06.659Z,10.90
2023-04-09T14:28:33.628Z,7.95
2023-04-09T14:31:00.662Z,7.85
2023-04-09T14:33:27.738Z,7.65
2023-04-09T14:35:54.810Z,7.53
2023-04-09T14:38:23.988Z,6.47
2023-04-09T14:40:51.425Z,5.50
2023-04-09T14:43:18.427Z,6.80
2023-04-09T14:45:45.266Z,6.78
2023-04-09T14:48:12.164Z,6.80
2023-04-09T14:50:39.006Z,7.28
2023-04-09T14:53:05.941Z,5.93
2023-04-09T14:55:32.806Z,6.63
2023-04-09T14:58:01.544Z,6.65
2023-04-09T15:00:28.482Z,6.25
2023-04-09T15:02:56.394Z,6.18
2023-04-09T15:05:23.658Z,5.95
2023-04-09T15:07:51.245Z,5.50
2023-04-09T15:10:18.831Z,6.60
2023-04-09T15:12:45.712Z,6.30
2023-04-09T15:15:14.471Z,6.85
2023-04-09T15:17:41.361Z,7.88
2023-04-09T15:20:08.554Z,7.38
2023-04-09T15:22:35.475Z,6.63
2023-04-09T15:25:03.686Z,6.88
2023-04-09T15:27:30.596Z,6.68
2023-04-09T15:29:57.410Z,6.40
2023-04-09T15:32:24.303Z,6.50
2023-04-09T15:34:52.284Z,6.63
2023-04-09T15:37:19.139Z,7.55
2023-04-09T15:39:46.408Z,6.75
2023-04-09T15:42:14.854Z,6.13
2023-04-09T15:44:41.727Z,6.97
2023-04-09T15:47:08.520Z,7.40
2023-04-09T15:49:36.895Z,6.18
2023-04-09T15:52:03.955Z,6.72
2023-04-09T15:54:31.084Z,6.20
2023-04-09T15:56:57.912Z,6.30
2023-04-09T15:59:24.803Z,5.75
2023-04-09T16:01:52.658Z,5.32
2023-04-09T16:04:19.583Z,4.63
2023-04-09T16:06:46.473Z,4.28
2023-04-09T16:09:13.309Z,5.03
2023-04-09T16:11:40.621Z,4.30
2023-04-09T16:14:09.040Z,4.88
2023-04-09T16:16:36.908Z,4.45
2023-04-09T16:19:03.887Z,4.70
2023-04-09T16:21:31.151Z,4.38
2023-04-09T16:23:58.044Z,3.85
2023-04-09T16:26:24.875Z,3.38
2023-04-09T16:28:51.918Z,3.88
2023-04-09T16:31:18.959Z,3.13
2023-04-09T16:33:45.870Z,3.63
2023-04-09T16:36:12.775Z,3.70
2023-04-09T16:38:39.610Z,3.30
2023-04-09T16:41:06.542Z,3.55
2023-04-09T16:43:33.445Z,3.45
2023-04-09T16:46:00.434Z,3.83
2023-04-09T16:48:27.273Z,2.85
2023-04-09T16:50:54.124Z,3.13
2023-04-09T16:53:21.031Z,3.45
2023-04-09T16:55:47.865Z,2.80
2023-04-09T16:58:14.707Z,3.20
2023-04-09T17:00:41.986Z,2.47
2023-04-09T17:03:09.075Z,2.47
2023-04-09T17:05:36.011Z,2.90
2023-04-09T17:08:03.033Z,3.47
2023-04-09T17:10:29.815Z,2.72
2023-04-09T17:12:56.606Z,3.65
2023-04-09T17:15:25.046Z,2.53
2023-04-09T17:17:53.322Z,2.10
2023-04-09T17:20:21.907Z,1.50
2023-04-09T17:22:48.799Z,1.70
2023-04-09T17:25:15.802Z,1.50
2023-04-09T17:27:43.910Z,1.90
2023-04-09T17:30:12.036Z,1.42
2023-04-09T17:32:39.525Z,1.88
2023-04-09T17:35:07.603Z,1.58
2023-04-09T17:37:34.761Z,1.70
2023-04-09T17:40:02.052Z,1.80
2023-04-09T17:42:29.741Z,2.40
2023-04-09T17:44:56.855Z,4.60
2023-04-09T17:47:23.762Z,3.28
2023-04-09T17:49:50.688Z,4.38
2023-04-09T17:52:17.615Z,7.68
2023-04-09T17:54:45.504Z,8.27
2023-04-09T17:57:12.505Z,6.07
2023-04-09T17:59:39.632Z,4.00
2023-04-09T18:02:07.190Z,4.20
2023-04-09T18:04:35.219Z,3.20
2023-04-09T18:07:02.597Z,3.60
2023-04-09T18:09:29.533Z,2.20
2023-04-09T18:11:57.814Z,2.00
2023-04-09T18:14:24.767Z,2.53
2023-04-09T18:16:51.891Z,2.08
2023-04-09T18:19:18.777Z,2.22
2023-04-09T18:21:45.707Z,2.92
2023-04-09T18:24:12.623Z,2.13
2023-04-09T18:26:39.476Z,1.42
2023-04-09T18:29:06.695Z,1.40
2023-04-09T18:31:33.681Z,1.20
2023-04-09T18:34:00.749Z,1.45
2023-04-09T18:36:28.348Z,2.00
2023-04-09T18:38:56.234Z,1.90
2023-04-09T18:41:24.021Z,2.05
2023-04-09T18:43:51.049Z,2.53
2023-04-09T18:46:18.386Z,1.80
2023-04-09T18:48:47.019Z,2.70
2023-04-09T18:51:14.598Z,2.85
2023-04-09T18:53:42.034Z,3.50
2023-04-09T18:56:09.365Z,5.57
2023-04-09T18:58:37.417Z,5.75
2023-04-09T19:01:11.819Z,4.70
2023-04-09T19:03:39.686Z,6.35
2023-04-09T19:06:17.889Z,5.72
2023-04-09T19:08:48.261Z,6.28
2023-04-09T19:11:15.392Z,5.22
2023-04-09T19:13:42.217Z,5.57
2023-04-09T19:16:09.464Z,7.10
2023-04-09T19:18:37.077Z,6.47
2023-04-09T19:21:05.146Z,6.20
2023-04-09T19:23:34.169Z,6.03
2023-04-09T19:26:01.230Z,6.35
2023-04-09T19:28:28.144Z,6.05
2023-04-09T19:30:55.028Z,5.13
2023-04-09T19:33:25.755Z,5.63
2023-04-09T19:35:54.371Z,5.95
2023-04-09T19:38:21.422Z,5.57
2023-04-09T19:40:48.386Z,5.43
2023-04-09T19:43:15.571Z,5.80
2023-04-09T19:45:42.834Z,5.32
2023-04-09T19:48:09.771Z,5.75
2023-04-09T19:50:37.946Z,5.90
2023-04-09T19:53:07.961Z,5.68
2023-04-09T19:55:34.939Z,5.47
2023-04-09T19:58:02.174Z,5.63
2023-04-09T20:00:29.180Z,4.63
2023-04-09T20:02:57.431Z,4.93
2023-04-09T20:05:24.543Z,5.03
2023-04-09T20:07:52.809Z,4.82
2023-04-09T20:10:20.023Z,5.07
2023-04-09T20:12:47.708Z,5.50
2023-04-09T20:15:15.351Z,5.18
2023-04-09T20:17:42.710Z,5.40
2023-04-09T20:20:09.910Z,4.72
2023-04-09T20:22:36.834Z,5.10
2023-04-09T20:25:03.829Z,5.30
2023-04-09T20:27:31.376Z,5.40
2023-04-09T20:29:58.678Z,4.85
2023-04-09T20:32:27.093Z,4.97
2023-04-09T20:34:54.039Z,4.75
2023-04-09T20:37:21.363Z,5.20
2023-04-09T20:39:48.359Z,4.82
2023-04-09T20:42:15.447Z,4.30
2023-04-09T20:44:43.239Z,5.28
2023-04-09T20:47:10.478Z,4.90
2023-04-09T20:49:37.313Z,5.28
2023-04-09T20:52:04.122Z,5.40
2023-04-09T20:54:31.021Z,5.57
2023-04-09T20:56:57.849Z,5.35
2023-04-09T20:59:25.012Z,4.85
2023-04-09T21:01:52.440Z,4.30
2023-04-09T21:04:19.656Z,5.28
2023-04-09T21:06:47.740Z,4.78
2023-04-09T21:09:14.670Z,4.47
2023-04-09T21:11:41.523Z,4.45
2023-04-09T21:14:10.921Z,4.05
2023-04-09T21:16:37.794Z,4.43
2023-04-09T21:19:07.003Z,4.20
2023-04-09T21:21:34.551Z,4.60
2023-04-09T21:24:01.547Z,4.38
2023-04-09T21:26:33.706Z,5.65
2023-04-09T21:29:11.993Z,4.63
2023-04-09T21:31:38.879Z,4.72
2023-04-09T21:34:05.712Z,4.80
2023-04-09T21:36:36.253Z,4.85
2023-04-09T21:39:03.532Z,4.28
2023-04-09T21:41:30.626Z,5.07
2023-04-09T21:43:57.503Z,4.80
2023-04-09T21:46:25.116Z,5.35
2023-04-09T21:48:52.220Z,4.18
2023-04-09T21:51:19.296Z,4.90
2023-04-09T21:53:47.600Z,3.97
2023-04-09T21:56:14.451Z,4.60
2023-04-09T21:58:41.287Z,4.68
2023-04-09T22:01:15.650Z,4.78
2023-04-09T22:03:46.690Z,4.45
2023-04-09T22:06:13.597Z,4.50
2023-04-09T22:08:54.994Z,4.57
2023-04-09T22:11:30.045Z,5.00
2023-04-09T22:13:57.220Z,4.50
2023-04-09T22:16:24.670Z,4.43
2023-04-09T22:18:52.580Z,4.65
2023-04-09T22:21:19.609Z,5.68
2023-04-09T22:23:46.464Z,4.10
2023-04-09T22:26:13.286Z,4.07
2023-04-09T22:28:40.152Z,3.67
2023-04-09T22:31:07.168Z,4.47
2023-04-09T22:33:34.092Z,4.57
2023-04-09T22:36:00.905Z,3.88
2023-04-09T22:38:27.813Z,3.83
2023-04-09T22:40:54.651Z,4.10
2023-04-09T22:43:21.494Z,4.43
2023-04-09T22:45:54.831Z,4.95
2023-04-09T22:48:22.054Z,3.90
2023-04-09T22:50:49.443Z,4.13
2023-04-09T22:53:19.112Z,4.05
2023-04-09T22:55:47.555Z,4.63
2023-04-09T22:58:14.680Z,4.07
2023-04-09T23:00:41.743Z,4.25
2023-04-09T23:03:08.828Z,2.95
2023-04-09T23:05:36.154Z,3.90
2023-04-09T23:08:03.025Z,4.35
2023-04-09T23:10:30.059Z,4.20
2023-04-09T23:12:57.071Z,4.55
2023-04-09T23:15:23.950Z,4.05
2023-04-09T23:17:51.935Z,4.05
2023-04-09T23:20:18.916Z,5.20
2023-04-09T23:22:46.476Z,4.82
2023-04-09T23:25:16.628Z,4.90
2023-04-09T23:27:43.527Z,4.65
2023-04-09T23:30:10.764Z,4.55
2023-04-09T23:32:37.671Z,4.47
2023-04-09T23:35:04.976Z,4.95
2023-04-09T23:37:31.853Z,4.55
2023-04-09T23:40:02.690Z,5.05
2023-04-09T23:42:33.016Z,5.25
2023-04-09T23:45:04.289Z,4.40
2023-04-09T23:47:33.404Z,5.00
2023-04-09T23:50:05.024Z,5.20
2023-04-09T23:52:36.440Z,5.40
2023-04-09T23:55:09.559Z,5.20
2023-04-09T23:57:36.478Z,5.20
